createdAt,value
2023-01-30T00:00:58.102Z,12.60
2023-01-30T00:11:05.318Z,15.30
2023-01-30T00:21:09.760Z,9.67
2023-01-30T00:31:11.975Z,8.15
2023-01-30T00:41:15.449Z,8.85
2023-01-30T00:51:17.665Z,8.80
2023-01-30T01:01:19.861Z,7.72
2023-01-30T01:11:25.074Z,6.30
2023-01-30T01:21:27.451Z,6.53
2023-01-30T01:31:29.704Z,6.25
2023-01-30T01:41:32.046Z,6.70
2023-01-30T01:51:42.634Z,9.40
2023-01-30T02:01:44.906Z,7.07
2023-01-30T02:11:52.760Z,6.82
2023-01-30T02:32:30.607Z,7.57
2023-01-30T02:42:32.782Z,7.40
2023-01-30T02:52:36.505Z,7.00
2023-01-30T03:03:09.901Z,5.72
2023-01-30T06:05:10.212Z,7.70
2023-01-30T06:15:12.645Z,7.55
2023-01-30T06:25:15.108Z,7.10
2023-01-30T06:35:17.685Z,7.55
2023-01-30T06:45:20.488Z,5.85
2023-01-30T06:55:25.715Z,6.78
2023-01-30T07:05:29.107Z,6.03
2023-01-30T07:15:32.470Z,5.10
2023-01-30T07:25:34.797Z,4.68
2023-01-30T07:35:37.902Z,4.47
2023-01-30T07:45:42.439Z,6.22
2023-01-30T07:55:44.989Z,6.80
2023-01-30T08:05:47.357Z,7.80
2023-01-30T08:15:50.144Z,7.03
2023-01-30T08:25:57.002Z,6.45
2023-01-30T08:35:59.339Z,8.70
2023-01-30T08:46:01.673Z,6.45
2023-01-30T08:56:04.058Z,6.10
2023-01-30T09:06:06.310Z,4.03
2023-01-30T09:16:08.668Z,5.60
2023-01-30T09:26:10.903Z,5.47
2023-01-30T09:36:13.197Z,5.63
2023-01-30T09:46:33.162Z,5.80
2023-01-30T09:56:35.434Z,3.70
2023-01-30T10:06:51.254Z,4.88
2023-01-30T10:17:12.084Z,3.90
2023-01-30T10:27:17.331Z,6.43
2023-01-30T10:37:29.641Z,8.88
2023-01-30T10:47:47.903Z,4.32
2023-01-30T10:58:01.696Z,3.80
2023-01-30T11:08:04.143Z,4.07
2023-01-30T11:18:54.838Z,22.85
2023-01-30T11:28:38.885Z,18.15
2023-01-30T11:39:12.915Z,9.98
2023-01-30T11:49:46.872Z,2.88
2023-01-30T11:59:58.185Z,2.10
2023-01-30T12:10:01.817Z,4.00
2023-01-30T12:20:13.076Z,5.55
2023-01-30T12:30:29.860Z,1.88
2023-01-30T12:40:39.576Z,2.78
2023-01-30T12:51:00.511Z,3.42
2023-01-30T13:01:09.048Z,2.58
2023-01-30T13:11:17.942Z,2.80
2023-01-30T13:21:31.453Z,2.35
2023-01-30T13:31:39.456Z,4.00
2023-01-30T13:41:49.313Z,3.33
2023-01-30T13:51:58.150Z,2.20
2023-01-30T14:02:02.306Z,2.17
2023-01-30T14:12:06.866Z,5.18
2023-01-30T14:22:23.087Z,6.30
2023-01-30T14:32:52.470Z,2.03
2023-01-30T14:43:12.720Z,5.53
2023-01-30T14:53:15.459Z,5.65
2023-01-30T15:03:20.517Z,6.13
2023-01-30T15:13:34.912Z,2.25
2023-01-30T15:23:52.407Z,3.47
2023-01-30T15:33:56.954Z,6.93
2023-01-30T15:44:23.062Z,5.18
2023-01-30T15:54:25.338Z,3.03
2023-01-30T16:04:29.148Z,5.35
2023-01-30T16:14:31.386Z,3.10
2023-01-30T16:24:37.304Z,8.60
2023-01-30T16:34:39.938Z,3.90
2023-01-30T16:44:42.138Z,4.85
2023-01-30T17:05:43.175Z,3.72
2023-01-30T17:15:45.674Z,3.30
2023-01-30T17:25:49.544Z,5.32
2023-01-30T17:35:52.050Z,1.70
2023-01-30T17:45:56.735Z,2.05
2023-01-30T17:55:59.977Z,2.40
2023-01-30T18:06:02.333Z,4.18
2023-01-30T18:16:05.259Z,3.83
2023-01-30T18:26:07.554Z,2.10
2023-01-30T18:36:11.807Z,3.58
2023-01-30T18:46:16.170Z,2.80
2023-01-30T18:56:21.295Z,2.38
2023-01-30T19:06:24.573Z,3.45
2023-01-30T19:16:29.066Z,1.10
2023-01-30T19:26:32.000Z,4.30
2023-01-30T19:36:36.292Z,1.92
2023-01-30T19:46:38.775Z,5.22
2023-01-30T19:56:42.696Z,1.30
2023-01-30T20:06:45.310Z,3.63
2023-01-30T20:16:47.603Z,2.10
2023-01-30T20:26:49.986Z,3.65
2023-01-30T20:36:52.475Z,2.95
2023-01-30T20:46:56.760Z,3.50
2023-01-30T20:56:59.114Z,2.72
2023-01-30T21:07:01.730Z,2.42
2023-01-30T21:17:04.067Z,3.55
2023-01-30T21:27:06.322Z,2.08
2023-01-30T21:40:31.125Z,3.03
2023-01-30T21:50:34.008Z,2.90
2023-01-30T22:00:36.813Z,3.92
2023-01-30T22:10:39.219Z,3.22
2023-01-30T22:20:41.470Z,3.80
2023-01-30T22:30:43.692Z,2.80
2023-01-30T22:40:46.728Z,2.13
2023-01-30T22:51:03.116Z,2.58
2023-01-30T23:01:11.920Z,2.00
2023-01-30T23:11:18.577Z,2.33
2023-01-30T23:21:29.791Z,3.28
2023-01-30T23:31:32.162Z,2.47
2023-01-30T23:41:36.600Z,2.30
2023-01-30T23:51:40.485Z,2.30
